createdAt,value
2023-01-19T02:26:16.043Z,97790.31
2023-01-19T02:28:57.561Z,97794.47
2023-01-19T02:31:28.094Z,97796.22
2023-01-19T02:33:57.471Z,97798.31
2023-01-19T02:36:31.484Z,97801.59
2023-01-19T02:39:02.334Z,97800.31
2023-01-19T02:41:39.588Z,97798.00
2023-01-19T02:44:12.367Z,97803.28
2023-01-19T02:46:41.847Z,97792.44
2023-01-19T02:49:10.595Z,97795.72
2023-01-19T02:51:39.443Z,97789.72
2023-01-19T02:54:29.401Z,97791.59
2023-01-19T02:57:27.843Z,97801.25
2023-01-19T03:00:26.663Z,97803.94
2023-01-19T03:03:20.133Z,97810.53
2023-01-19T03:06:01.616Z,97814.59
2023-01-19T03:08:45.307Z,97803.88
2023-01-19T03:11:15.952Z,97807.56
2023-01-19T03:13:52.715Z,97815.25
2023-01-19T03:16:31.534Z,97809.38
2023-01-19T03:19:10.808Z,97820.41
2023-01-19T03:21:44.749Z,97819.69
2023-01-19T03:24:17.138Z,97825.75
2023-01-19T03:26:56.209Z,97843.00
2023-01-19T03:29:29.424Z,97836.22
2023-01-19T03:32:09.281Z,97839.44
2023-01-19T03:34:40.547Z,97834.13
2023-01-19T03:37:12.745Z,97832.66
2023-01-19T03:39:42.753Z,97843.94
2023-01-19T03:42:16.652Z,97843.88
2023-01-19T03:44:50.712Z,97838.38
2023-01-19T03:47:21.658Z,97837.75
2023-01-19T03:49:54.137Z,97845.56
2023-01-19T03:52:29.985Z,97852.16
2023-01-19T03:54:58.888Z,97859.78
2023-01-19T03:57:27.913Z,97850.91
2023-01-19T03:59:56.962Z,97845.97
2023-01-19T04:02:27.201Z,97853.56
2023-01-19T04:04:56.028Z,97851.97
2023-01-19T04:07:24.803Z,97858.75
2023-01-19T04:10:21.014Z,97857.19
2023-01-19T04:12:51.399Z,97854.47
2023-01-19T04:15:20.465Z,97851.72
2023-01-19T04:17:50.959Z,97857.56
2023-01-19T04:20:28.441Z,97859.16
2023-01-19T04:23:02.675Z,97853.28
2023-01-19T04:25:38.046Z,97844.41
2023-01-19T04:28:07.696Z,97842.25
2023-01-19T04:30:40.785Z,97846.25
2023-01-19T04:33:25.574Z,97846.41
2023-01-19T04:35:55.340Z,97842.94
2023-01-19T04:38:25.746Z,97844.94
2023-01-19T04:40:57.745Z,97841.81
2023-01-19T04:43:26.611Z,97837.66
2023-01-19T04:45:55.312Z,97847.72
2023-01-19T04:48:25.952Z,97853.72
2023-01-19T04:50:54.829Z,97852.09
2023-01-19T04:53:52.900Z,97848.66
2023-01-19T04:56:31.253Z,97848.63
2023-01-19T04:59:01.105Z,97853.78
2023-01-19T05:01:30.307Z,97856.22
2023-01-19T05:04:03.767Z,97857.56
2023-01-19T05:06:32.725Z,97853.69
2023-01-19T05:09:01.625Z,97852.84
2023-01-19T05:11:30.378Z,97855.91
2023-01-19T05:13:59.303Z,97853.84
2023-01-19T05:16:28.113Z,97862.13
2023-01-19T05:19:03.361Z,97853.63
2023-01-19T05:21:32.178Z,97861.69
2023-01-19T05:24:03.207Z,97858.56
2023-01-19T05:26:34.671Z,97852.66
2023-01-19T05:29:34.010Z,97848.47
2023-01-19T05:32:03.501Z,97847.81
2023-01-19T05:34:34.767Z,97847.31
2023-01-19T05:37:03.653Z,97845.53
2023-01-19T05:39:33.580Z,97845.03
2023-01-19T05:42:02.441Z,97841.63
2023-01-19T05:44:31.199Z,97839.19
2023-01-19T05:47:00.007Z,97839.84
2023-01-19T05:49:28.892Z,97839.34
2023-01-19T05:51:59.269Z,97832.16
2023-01-19T05:54:30.377Z,97834.78
2023-01-19T05:56:59.086Z,97835.88
2023-01-19T05:59:28.163Z,97833.91
2023-01-19T06:01:57.508Z,97842.88
2023-01-19T06:04:26.591Z,97840.78
2023-01-19T06:06:55.381Z,97844.59
2023-01-19T06:09:25.519Z,97832.63
2023-01-19T06:11:56.643Z,97833.97
2023-01-19T06:14:26.862Z,97842.00
2023-01-19T06:16:55.541Z,97845.38
2023-01-19T06:19:30.855Z,97852.06
2023-01-19T06:21:59.787Z,97854.19
2023-01-19T06:24:29.925Z,97863.03
2023-01-19T06:26:58.615Z,97865.81
2023-01-19T06:29:28.765Z,97862.53
2023-01-19T06:31:58.286Z,97872.97
2023-01-19T06:34:28.868Z,97874.47
2023-01-19T06:36:57.921Z,97877.56
2023-01-19T06:39:27.482Z,97881.47
2023-01-19T06:41:57.573Z,97890.78
2023-01-19T06:44:26.898Z,97890.63
2023-01-19T06:47:14.867Z,97884.41
2023-01-19T06:49:44.719Z,97890.31
2023-01-19T06:52:16.126Z,97895.66
2023-01-19T06:54:45.260Z,97894.88
2023-01-19T06:57:16.033Z,97898.47
2023-01-19T06:59:44.803Z,97904.00
2023-01-19T07:02:26.501Z,97900.09
2023-01-19T07:04:57.071Z,97898.13
2023-01-19T07:07:25.995Z,97896.50
2023-01-19T07:09:55.233Z,97904.00
2023-01-19T07:12:25.569Z,97908.72
2023-01-19T07:14:54.309Z,97908.88
2023-01-19T07:17:23.058Z,97920.16
2023-01-19T07:19:51.991Z,97913.97
2023-01-19T07:22:20.875Z,97910.22
2023-01-19T07:24:49.585Z,97910.81
2023-01-19T07:27:18.436Z,97914.28
2023-01-19T07:29:50.622Z,97920.97
2023-01-19T07:32:21.506Z,97919.00
2023-01-19T07:34:54.191Z,97923.41
2023-01-19T07:38:14.838Z,97919.66
2023-01-19T07:40:48.517Z,97927.31
2023-01-19T07:43:22.072Z,97935.81
2023-01-19T07:46:08.845Z,97937.59
2023-01-19T07:48:44.503Z,97941.16
2023-01-19T07:51:18.159Z,97938.88
2023-01-19T07:53:47.665Z,97941.38
2023-01-19T07:56:16.371Z,97948.41
2023-01-19T07:58:45.041Z,97945.44
2023-01-19T08:01:15.620Z,97942.34
2023-01-19T08:03:44.353Z,97946.06
2023-01-19T08:06:21.233Z,97947.69
2023-01-19T08:09:44.052Z,97950.00
2023-01-19T08:12:12.792Z,97956.84
2023-01-19T08:14:41.683Z,97950.28
2023-01-19T08:17:14.866Z,97954.19
2023-01-19T08:19:45.923Z,97954.00
2023-01-19T08:22:14.732Z,97964.13
2023-01-19T08:24:43.576Z,97956.44
2023-01-19T08:27:12.391Z,97956.78
2023-01-19T08:29:41.169Z,97964.97
2023-01-19T08:32:10.092Z,97958.38
2023-01-19T08:34:40.415Z,97959.81
2023-01-19T08:37:09.346Z,97962.31
2023-01-19T08:39:38.095Z,97959.13
2023-01-19T08:42:16.058Z,97967.44
2023-01-19T08:44:57.327Z,97966.56
2023-01-19T08:47:26.806Z,97956.72
2023-01-19T08:49:57.075Z,97962.44
2023-01-19T08:52:26.780Z,97960.50
2023-01-19T08:54:55.552Z,97960.09
2023-01-19T08:57:29.224Z,97971.19
2023-01-19T08:59:58.084Z,97967.19
2023-01-19T09:02:27.132Z,97970.09
2023-01-19T09:04:57.559Z,97968.06
2023-01-19T09:07:26.470Z,97961.13
2023-01-19T09:09:55.384Z,97954.53
2023-01-19T09:12:24.245Z,97961.69
2023-01-19T09:14:58.279Z,97957.94
2023-01-19T09:17:27.279Z,97951.16
2023-01-19T09:19:57.752Z,97964.72
2023-01-19T09:22:26.676Z,97962.22
2023-01-19T09:24:55.409Z,97965.13
2023-01-19T09:27:24.349Z,97968.03
2023-01-19T09:29:54.206Z,97967.78
2023-01-19T09:32:23.710Z,97963.66
2023-01-19T09:34:54.094Z,97954.34
2023-01-19T09:37:24.625Z,97956.59
2023-01-19T09:39:53.653Z,97959.16
2023-01-19T09:42:32.558Z,97946.47
2023-01-19T09:45:06.584Z,97958.06
2023-01-19T09:47:40.310Z,97953.44
2023-01-19T09:50:22.230Z,97951.28
2023-01-19T09:53:02.389Z,97949.56
2023-01-19T09:55:32.482Z,97954.88
2023-01-19T09:58:01.899Z,97954.88
2023-01-19T10:01:49.931Z,97952.19
2023-01-19T10:05:22.290Z,97948.19
2023-01-19T10:08:19.683Z,97941.94
2023-01-19T10:10:54.226Z,97939.31
2023-01-19T10:13:42.526Z,97943.59
2023-01-19T10:16:34.835Z,97931.69
2023-01-19T10:19:28.673Z,97935.31
2023-01-19T10:22:51.963Z,97924.81
2023-01-19T10:25:25.195Z,97926.09
2023-01-19T10:28:50.676Z,97923.06
2023-01-19T10:31:24.224Z,97919.72
2023-01-19T10:33:54.233Z,97918.09
2023-01-19T10:36:30.888Z,97919.38
2023-01-19T10:39:00.092Z,97926.03
2023-01-19T10:41:41.917Z,97925.84
2023-01-19T10:44:12.218Z,97927.13
2023-01-19T10:46:46.354Z,97921.06
2023-01-19T10:50:23.778Z,97929.88
2023-01-19T10:52:57.559Z,97917.88
2023-01-19T10:55:31.871Z,97927.66
2023-01-19T10:58:53.599Z,97925.28
2023-01-19T11:01:25.881Z,97926.16
2023-01-19T11:03:57.223Z,97922.53
2023-01-19T11:06:31.105Z,97923.28
2023-01-19T11:09:17.539Z,97926.97
2023-01-19T11:11:52.723Z,97923.78
2023-01-19T11:14:26.296Z,97930.28
2023-01-19T11:16:58.302Z,97922.41
2023-01-19T11:19:32.375Z,97925.09
2023-01-19T11:22:21.775Z,97929.19
2023-01-19T11:24:52.253Z,97923.53
2023-01-19T11:27:22.795Z,97916.66
2023-01-19T11:30:08.061Z,97914.28
2023-01-19T11:32:37.664Z,97914.72
2023-01-19T11:35:39.907Z,97911.91
2023-01-19T11:38:25.811Z,97918.41
2023-01-19T11:40:57.755Z,97916.66
2023-01-19T11:43:47.447Z,97908.38
2023-01-19T11:46:19.873Z,97909.63
2023-01-19T11:49:01.977Z,97911.06
2023-01-19T11:51:37.789Z,97910.00
2023-01-19T11:54:21.855Z,97921.34
2023-01-19T11:56:53.283Z,97921.28
2023-01-19T11:59:51.240Z,97920.34
2023-01-19T12:02:29.532Z,97924.41
2023-01-19T12:05:07.687Z,97917.38
2023-01-19T12:07:39.472Z,97918.69
2023-01-19T12:10:23.975Z,97916.84
2023-01-19T12:12:54.050Z,97917.09
2023-01-19T12:15:31.612Z,97912.44
2023-01-19T12:18:04.662Z,97909.06
2023-01-19T12:20:39.226Z,97920.84
2023-01-19T12:23:31.239Z,97902.78
2023-01-19T12:26:31.990Z,97912.41
2023-01-19T12:29:09.400Z,97908.28
2023-01-19T12:31:40.731Z,97899.63
2023-01-19T12:34:41.906Z,97901.88
2023-01-19T12:37:39.052Z,97907.28
2023-01-19T12:40:27.189Z,97910.69
2023-01-19T12:43:02.513Z,97918.81
2023-01-19T12:45:34.826Z,97908.28
2023-01-19T12:48:09.060Z,97923.25
2023-01-19T12:50:40.438Z,97920.88
2023-01-19T12:53:22.631Z,97917.22
2023-01-19T12:56:01.512Z,97920.25
2023-01-19T12:58:31.082Z,97929.59
2023-01-19T13:01:16.704Z,97928.56
2023-01-19T13:04:00.203Z,97916.06
2023-01-19T13:07:13.770Z,97914.41
2023-01-19T13:09:43.367Z,97919.88
2023-01-19T13:12:23.876Z,97916.81
2023-01-19T13:15:12.804Z,97905.91
2023-01-19T13:17:52.348Z,97917.00
2023-01-19T13:20:45.739Z,97914.06
2023-01-19T13:23:26.416Z,97900.16
2023-01-19T13:26:07.638Z,97896.91
2023-01-19T13:28:46.023Z,97895.66
2023-01-19T13:31:16.140Z,97899.16
2023-01-19T13:33:51.560Z,97906.06
2023-01-19T13:36:29.979Z,97898.56
2023-01-19T13:39:04.596Z,97908.94
2023-01-19T13:41:39.589Z,97906.28
2023-01-19T13:44:16.149Z,97905.66
2023-01-19T13:46:45.950Z,97903.84
2023-01-19T13:49:24.129Z,97899.38
2023-01-19T13:52:22.698Z,97908.28
2023-01-19T13:55:11.217Z,97909.31
2023-01-19T13:57:51.073Z,97910.31
2023-01-19T14:00:23.606Z,97912.75
2023-01-19T14:03:00.211Z,97900.16
2023-01-19T14:05:32.320Z,97904.56
2023-01-19T14:08:13.027Z,97900.75
2023-01-19T14:10:45.932Z,97902.41
2023-01-19T14:13:19.142Z,97908.69
2023-01-19T14:15:51.897Z,97912.31
2023-01-19T14:18:30.667Z,97917.38
2023-01-19T14:21:07.876Z,97914.31
2023-01-19T14:23:47.263Z,97916.91
2023-01-19T14:26:47.630Z,97926.19
2023-01-19T14:29:26.126Z,97925.91
2023-01-19T14:32:18.497Z,97921.06
2023-01-19T14:34:50.402Z,97923.06
2023-01-19T14:37:27.218Z,97918.19
2023-01-19T14:40:05.396Z,97921.63
2023-01-19T14:42:40.357Z,97920.66
2023-01-19T14:45:21.609Z,97924.25
2023-01-19T14:47:59.696Z,97931.34
2023-01-19T14:50:31.754Z,97916.31
2023-01-19T14:53:05.569Z,97927.03
2023-01-19T14:55:41.531Z,97920.50
2023-01-19T14:58:17.436Z,97925.41
2023-01-19T15:00:49.439Z,97922.16
2023-01-19T15:03:19.378Z,97923.53
2023-01-19T15:05:50.166Z,97924.50
2023-01-19T15:08:26.518Z,97923.28
2023-01-19T15:10:55.807Z,97928.84
2023-01-19T15:13:28.764Z,97936.56
2023-01-19T15:15:58.491Z,97949.72
2023-01-19T15:18:29.129Z,97947.44
2023-01-19T15:21:02.823Z,97943.00
2023-01-19T15:23:32.789Z,97947.19
2023-01-19T15:26:04.722Z,97952.03
2023-01-19T15:28:36.989Z,97952.03
2023-01-19T15:31:06.160Z,97958.44
2023-01-19T15:33:35.307Z,97956.22
2023-01-19T15:36:05.480Z,97959.03
2023-01-19T15:38:34.546Z,97960.19
2023-01-19T15:41:03.913Z,97967.47
2023-01-19T15:43:34.583Z,97966.50
2023-01-19T15:46:06.619Z,97969.22
2023-01-19T15:48:38.052Z,97970.56
2023-01-19T15:51:13.601Z,97976.38
2023-01-19T15:53:43.863Z,97972.03
2023-01-19T15:56:16.827Z,97972.50
2023-01-19T15:58:49.421Z,97986.19
2023-01-19T16:01:22.535Z,97984.09
2023-01-19T16:04:17.882Z,97977.16
2023-01-19T16:06:50.080Z,97983.22
2023-01-19T16:09:20.168Z,97985.47
2023-01-19T16:11:49.023Z,97988.72
2023-01-19T16:14:20.053Z,97995.25
2023-01-19T16:16:49.764Z,97996.34
2023-01-19T16:19:19.241Z,97995.38
2023-01-19T16:21:49.543Z,97991.09
2023-01-19T16:24:18.196Z,97991.09
2023-01-19T16:26:46.887Z,97994.72
2023-01-19T16:29:15.673Z,98008.84
2023-01-19T16:31:46.981Z,98002.31
2023-01-19T16:34:15.930Z,98002.31
2023-01-19T16:36:45.021Z,98003.16
2023-01-19T16:39:17.368Z,98004.41
2023-01-19T16:41:47.274Z,98014.47
2023-01-19T16:44:18.423Z,98012.56
2023-01-19T16:46:50.117Z,98008.28
2023-01-19T16:49:22.337Z,98013.19
2023-01-19T16:51:53.037Z,98017.44
2023-01-19T16:54:26.101Z,98021.16
2023-01-19T16:56:57.408Z,98010.47
2023-01-19T16:59:29.196Z,98020.88
2023-01-19T17:02:00.519Z,98018.59
2023-01-19T17:04:31.601Z,98010.19
2023-01-19T17:07:02.210Z,98011.00
2023-01-19T17:09:31.387Z,98016.44
2023-01-19T17:12:00.387Z,98023.22
2023-01-19T17:14:29.099Z,98026.19
2023-01-19T17:17:00.647Z,98028.09
2023-01-19T17:19:29.432Z,98030.47
2023-01-19T17:21:58.387Z,98033.34
2023-01-19T17:24:27.283Z,98025.94
2023-01-19T17:26:56.173Z,98028.03
2023-01-19T17:29:25.248Z,98035.44
2023-01-19T17:32:53.664Z,98038.53
2023-01-19T17:35:24.786Z,98038.53
2023-01-19T17:37:56.102Z,98042.06
2023-01-19T17:40:26.892Z,98043.59
2023-01-19T17:42:56.795Z,98048.50
2023-01-19T17:45:26.072Z,98052.22
2023-01-19T17:47:55.047Z,98042.63
2023-01-19T17:50:25.386Z,98048.34
2023-01-19T17:52:54.107Z,98054.84
2023-01-19T17:55:22.816Z,98051.31
2023-01-19T17:57:54.365Z,98056.13
2023-01-19T18:00:24.079Z,98058.63
2023-01-19T18:02:54.553Z,98064.16
2023-01-19T18:05:26.572Z,98058.28
2023-01-19T18:07:55.332Z,98061.19
2023-01-19T18:10:24.433Z,98064.50
2023-01-19T18:12:56.593Z,98066.59
2023-01-19T18:15:25.308Z,98062.97
2023-01-19T18:17:54.915Z,98066.59
2023-01-19T18:20:25.236Z,98069.94
2023-01-19T18:22:53.990Z,98068.38
2023-01-19T18:25:26.095Z,98059.13
2023-01-19T18:27:55.676Z,98060.22
2023-01-19T18:30:24.429Z,98061.41
2023-01-19T18:32:53.224Z,98055.97
2023-01-19T18:35:23.182Z,98063.13
2023-01-19T18:37:54.930Z,98065.94
2023-01-19T18:40:23.768Z,98070.47
2023-01-19T18:42:52.674Z,98064.91
2023-01-19T18:45:21.330Z,98065.09
2023-01-19T18:47:51.243Z,98066.91
2023-01-19T18:50:52.772Z,98069.44
2023-01-19T18:53:30.309Z,98070.66
2023-01-19T18:56:07.054Z,98065.06
2023-01-19T18:58:41.075Z,98067.13
2023-01-19T19:01:25.355Z,98064.31
2023-01-19T19:03:56.687Z,98066.56
2023-01-19T19:06:27.810Z,98061.94
2023-01-19T19:09:07.013Z,98067.19
2023-01-19T19:11:36.797Z,98067.19
2023-01-19T19:14:06.091Z,98072.06
2023-01-19T19:16:38.566Z,98077.59
2023-01-19T19:19:11.983Z,98083.13
2023-01-19T19:21:42.779Z,98083.47
2023-01-19T19:24:14.120Z,98087.97
2023-01-19T19:26:46.220Z,98083.13
2023-01-19T19:29:16.936Z,98082.56
2023-01-19T19:31:47.590Z,98091.88
2023-01-19T19:34:19.546Z,98081.09
2023-01-19T19:36:49.184Z,98099.78
2023-01-19T19:39:20.631Z,98097.50
2023-01-19T19:41:52.294Z,98095.31
2023-01-19T19:44:25.050Z,98102.41
2023-01-19T19:46:59.819Z,98104.66
2023-01-19T19:49:31.735Z,98107.94
2023-01-19T19:52:16.231Z,98112.44
2023-01-19T19:54:50.647Z,98114.50
2023-01-19T19:57:47.273Z,98113.06
2023-01-19T20:00:19.351Z,98118.94
2023-01-19T20:02:55.748Z,98123.22
2023-01-19T20:05:25.866Z,98121.00
2023-01-19T20:07:54.875Z,98127.53
2023-01-19T20:10:26.661Z,98126.34
2023-01-19T20:12:57.747Z,98130.78
2023-01-19T20:15:26.561Z,98133.25
2023-01-19T20:17:57.365Z,98132.00
2023-01-19T20:20:29.671Z,98134.00
2023-01-19T20:23:00.622Z,98133.38
2023-01-19T20:25:31.997Z,98140.91
2023-01-19T20:28:05.556Z,98142.59
2023-01-19T20:30:35.076Z,98143.19
2023-01-19T20:33:04.419Z,98139.00
2023-01-19T20:35:33.588Z,98140.25
2023-01-19T20:38:02.650Z,98144.72
2023-01-19T20:40:33.312Z,98147.34
2023-01-19T20:43:06.618Z,98154.84
2023-01-19T20:45:35.749Z,98145.53
2023-01-19T20:48:04.560Z,98149.44
2023-01-19T20:50:33.356Z,98146.59
2023-01-19T20:53:05.297Z,98148.03
2023-01-19T20:55:37.285Z,98159.31
2023-01-19T20:58:06.330Z,98152.22
2023-01-19T21:00:35.778Z,98151.88
2023-01-19T21:03:04.718Z,98160.19
2023-01-19T21:05:33.790Z,98160.63
2023-01-19T21:08:02.648Z,98169.16
2023-01-19T21:10:31.756Z,98170.59
2023-01-19T21:13:02.078Z,98171.84
2023-01-19T21:15:35.399Z,98171.97
2023-01-19T21:18:04.450Z,98185.75
2023-01-19T21:20:33.209Z,98176.03
2023-01-19T21:23:01.999Z,98181.75
2023-01-19T21:25:30.814Z,98180.94
2023-01-19T21:28:01.297Z,98189.47
2023-01-19T21:30:30.274Z,98187.09
2023-01-19T21:32:59.447Z,98192.81
2023-01-19T21:35:28.234Z,98200.72
2023-01-19T21:37:59.482Z,98189.16
2023-01-19T21:40:28.251Z,98194.44
2023-01-19T21:42:56.967Z,98197.69
2023-01-19T21:45:28.101Z,98195.50
2023-01-19T21:47:56.880Z,98193.66
2023-01-19T21:50:25.654Z,98197.94
2023-01-19T21:52:54.575Z,98201.00
2023-01-19T21:58:05.190Z,98204.47
2023-01-19T22:00:35.460Z,98205.28
2023-01-19T22:03:04.964Z,98207.91
2023-01-19T22:05:36.996Z,98205.63
2023-01-19T22:08:07.168Z,98213.53
2023-01-19T22:10:38.262Z,98212.63
2023-01-19T22:13:07.955Z,98210.41
2023-01-19T22:15:38.144Z,98218.94
2023-01-19T22:18:07.198Z,98216.31
2023-01-19T22:20:36.100Z,98222.41
2023-01-19T22:23:05.000Z,98218.09
2023-01-19T22:25:35.017Z,98224.38
2023-01-19T22:28:03.843Z,98218.34
2023-01-19T22:30:33.703Z,98217.53
2023-01-19T22:33:03.964Z,98222.56
2023-01-19T22:35:32.920Z,98217.13
2023-01-19T22:38:02.195Z,98220.19
2023-01-19T22:40:31.054Z,98223.88
2023-01-19T22:42:59.854Z,98223.50
2023-01-19T22:45:28.685Z,98226.75
2023-01-19T22:47:57.375Z,98224.50
2023-01-19T22:50:27.563Z,98217.03
2023-01-19T22:52:57.924Z,98222.75
2023-01-19T22:55:27.106Z,98219.09
2023-01-19T22:57:55.773Z,98218.91
2023-01-19T23:00:24.566Z,98212.41
2023-01-19T23:02:53.248Z,98217.50
2023-01-19T23:05:22.141Z,98221.16
2023-01-19T23:07:52.350Z,98229.25
2023-01-19T23:10:21.095Z,98223.91
2023-01-19T23:12:49.891Z,98229.59
2023-01-19T23:15:18.651Z,98226.19
2023-01-19T23:17:53.061Z,98228.81
2023-01-19T23:20:22.108Z,98230.81
2023-01-19T23:22:52.305Z,98227.41
2023-01-19T23:25:21.068Z,98226.00
2023-01-19T23:27:49.906Z,98229.44
2023-01-19T23:30:19.434Z,98231.63
2023-01-19T23:32:51.612Z,98224.94
2023-01-19T23:35:20.541Z,98229.00
2023-01-19T23:37:49.369Z,98219.72
2023-01-19T23:40:20.159Z,98217.13
2023-01-19T23:42:48.831Z,98213.47
2023-01-19T23:45:17.763Z,98207.22
2023-01-19T23:47:46.570Z,98213.88
2023-01-19T23:50:15.363Z,98214.28
2023-01-19T23:52:44.191Z,98214.47
2023-01-19T23:55:13.234Z,98208.19
2023-01-19T23:57:43.473Z,98216.69
